CST,Max TemperatureF,Mean TemperatureF,Min TemperatureF,Max Dew PointF,MeanDew PointF,Min DewpointF,Max Humidity, Mean Humidity, Min Humidity, Max Sea Level PressureIn, Mean Sea Level PressureIn, Min Sea Level PressureIn, Max VisibilityMiles, Mean VisibilityMiles, Min VisibilityMiles, Max Wind SpeedMPH, Mean Wind SpeedMPH, Max Gust SpeedMPH,PrecipitationIn, CloudCover, Events, WindDirDegrees
2011-11-1,53,46,39,39,35,30,81,64,47,30.00,29.90,29.83,10,10,10,16,9,30,0.00,6,,231
2011-11-2,46,40,33,39,35,28,93,80,57,30.18,30.11,30.01,10,10,10,12,5,,0.00,4,,317
2011-11-3,48,36,23,34,23,16,100,70,30,30.23,30.20,30.17,10,10,10,10,2,,0.00,0,,250
2011-11-4,53,36,19,25,19,16,100,58,22,30.27,30.20,30.11,10,10,10,15,3,22,0.00,0,,173
2011-11-5,55,46,37,39,33,27,75,63,47,30.10,29.95,29.77,10,10,10,20,13,29,0.00,0,,172
2011-11-6,53,48,44,43,39,30,82,70,57,29.77,29.68,29.58,10,10,10,25,12,36,0.00,5,,189
2011-11-7,46,38,30,27,22,16,80,50,36,30.18,30.00,29.83,10,10,10,26,17,37,0.00,0,,243
2011-11-8,42,33,24,30,26,23,100,81,53,30.19,30.15,30.12,10,10,10,7,2,,0.00,0,,347
2011-11-9,37,32,26,32,29,25,100,86,75,30.12,29.93,29.74,10,10,10,14,3,20,0.00,6,,335
2011-11-10,35,32,30,34,29,23,100,84,65,29.88,29.81,29.74,10,6,1,16,11,24,0.12,8,,292
2011-11-11,41,34,26,27,23,19,80,66,53,29.86,29.65,29.49,10,10,10,15,9,24,0.02,4,,211
2011-11-12,59,44,28,36,28,25,93,57,27,29.55,29.44,29.21,10,10,10,16,7,24,0.00,1,,180
2011-11-13,53,44,33,36,33,28,87,65,41,29.40,29.20,29.13,10,10,10,16,10,28,0.00,4,,228
2011-11-14,51,42,33,30,28,25,87,60,37,29.46,29.37,29.31,10,10,10,21,10,26,0.00,3,,216
2011-11-15,42,37,32,36,29,21,93,77,60,29.65,29.56,29.52,10,10,2,25,7,36,0.03,4,,231
2011-11-16,32,26,21,25,17,10,86,66,47,29.96,29.85,29.65,10,10,7,25,18,32,0.00,8,,264
2011-11-17,28,24,19,19,15,10,93,74,55,30.02,29.97,29.93,10,9,4,18,14,24,0.00,7,,252
2011-11-18,39,30,21,28,21,10,87,66,51,29.94,29.71,29.64,10,10,10,10,5,16,0.00,6,,145
2011-11-19,33,30,26,32,29,25,100,94,86,29.90,29.77,29.65,10,5,0,15,4,21,0.00,7,,346
2011-11-20,26,14,3,21,16,0,100,86,74,30.29,30.22,30.02,10,10,10,9,5,16,0.00,6,,326
2011-11-21,33,17,1,27,17,-6,100,84,65,30.26,30.22,30.19,10,9,2,12,3,,0.07,2,,203
2011-11-22,33,22,10,30,24,9,100,91,80,30.24,30.09,30.00,10,10,2,10,2,,0.03,5,,175
2011-11-23,42,37,32,36,32,28,93,84,65,30.02,29.97,29.94,10,8,5,16,9,23,0.00,3,,217
2011-11-24,55,46,37,41,36,34,93,73,51,29.93,29.78,29.67,10,9,5,16,12,30,0.00,0,,208
2011-11-25,50,44,37,43,39,36,100,81,71,29.76,29.69,29.65,10,10,7,9,6,16,0.00,2,,181
2011-11-26,44,38,32,43,37,30,100,96,87,29.88,29.75,29.66,10,6,0,15,8,20,0.33,8,,360
2011-11-27,32,29,26,28,24,19,87,82,74,30.11,30.02,29.88,10,10,9,17,11,24,0.00,8,,323
2011-11-28,33,28,23,28,23,19,86,80,65,30.14,30.02,29.92,10,10,10,14,9,22,0.00,4,,214
2011-11-29,33,24,15,27,18,10,93,72,55,30.25,30.16,30.01,10,10,10,13,7,18,0.00,2,,4
2011-11-30,39,27,15,28,17,9,100,68,38,29.99,29.90,29.84,10,9,1,9,2,,0.00,3,,238